Dragos Keseru

Recruteur - FCSB
23 Oct 2027
Samedi
Processus

Personnalité

Adaptabilité (2) Ambition (13) Controverse (2) Loyauté (14) Pression (1) Professionnalisme (17) Sportivité (13) Tempérament (7)

Profil

Style d'entraînement Démocratique
Diplôme Continental Pro
Détermination 12
Gestion des joueurs 11
Motivation 13
Discipline 6
Satisfaction professionnelle
77%
Fatigue
0%
Rôle Recruteur
Salaire 24.2K p/s
Contrat 14.03.2029

Performance

Comportement Bon
Efficacité de l'entraînement
25%
Développement des joueurs
35%
Prévention des blessures
65%
Mise en place tactique
35%

Événements récents

A participé à une réunion de recrutement maintenant
A participé à une réunion de recrutement 7j
A recommandé une cible de transfert 7j
A participé à une réunion de recrutement 7j
A observé un match 7j
A recommandé une cible de transfert 14j
A participé à une réunion de recrutement 14j
A observé un match 14j

Suivi en cours

74
Joueur Club Statut Capacité Confiance Observé Dernière observation Dernier vote
Daniel Tonoli Modena Actif 129 / 134 40% 2 11.08.2027 -
Luciano Arnijas Maipú Perdu 123 / 102 40% 1 11.08.2027 -
Baldovino Cimino Cosenza Actif 122 / 113 40% 1 10.08.2027 -
Romano Floriani Mussolini Parma Actif 136 / 137 40% 1 10.08.2027 -
Federico Casolari Cittadella Actif 109 / 117 40% 1 10.08.2027 -
Marvin Kaleta Rotherham United Actif 115 / 112 40% 2 05.08.2027 -
Toby Collyer West Bromwich Albion Actif 142 / 137 40% 2 05.08.2027 -
Tim Iroegbunam Hull City Actif 141 / 137 40% 1 05.08.2027 -
Justin Devenny Stoke City Actif 135 / 135 40% 3 02.08.2027 -
Andrei Coubiş Lincoln City Actif 124 / 130 40% 2 01.08.2027 -
Danilo Veiga Lecce Actif 139 / 128 40% 1 01.08.2027 -
Max Johnston Derby County Actif 140 / 134 40% 2 29.07.2027 -
Kellen Fisher Norwich City Actif 121 / 125 40% 1 29.07.2027 -
Ben Chrisene Sheffield Wednesday Actif 126 / 119 40% 2 26.07.2027 -
Habib Diarra Sunderland Actif 151 / 152 40% 1 26.07.2027 -
Junior Tchamadeu Stoke City Actif 125 / 132 40% 2 24.07.2027 -
Riley Owen Wycombe Wanderers Actif 107 / 119 40% 2 22.07.2027 -
Brad Hills Stockport County Actif 112 / 128 40% 1 22.07.2027 -
Roger François Udinese Actif 153 / 144 40% 2 19.07.2027 -
Jacques Ekomié Wrexham Actif 126 / 141 40% 1 19.07.2027 -
Georgie Gent Barnsley Actif 115 / 113 40% 2 18.07.2027 -
Brooke Norton-Cuffy Hull City Actif 133 / 135 40% 1 18.07.2027 -
James Dornelly Peterborough United Actif 103 / 116 40% 2 17.07.2027 -
Riquelme Thompson-Jones Shrewsbury Town Actif 107 / 109 40% 1 17.07.2027 -
Sam Gale Gillingham Actif 107 / 106 40% 1 17.07.2027 -
Michael Craig Leyton Orient Actif 112 / 103 40% 2 16.07.2027 -
Reuell Walters Luton Town Actif 116 / 126 40% 1 16.07.2027 -
Max Conway Bolton Wanderers Actif 116 / 126 40% 1 16.07.2027 -
Ryoya Morishita Blackburn Rovers Actif 131 / 133 40% 1 12.07.2027 -
Nathan Broadhead Wrexham Actif 121 / 132 40% 1 12.07.2027 -
Wes Burns Leicester City Actif 123 / 131 40% 1 12.07.2027 -
Jenson Metcalfe Bradford City Actif 114 / 125 40% 1 09.07.2027 -
Sam Curtis Swindon Town Actif 111 / 112 40% 1 09.07.2027 -
Tommaso Barbieri Cremonese Actif 128 / 140 40% 1 07.07.2027 -
Isaac Ogundere AFC Wimbledon Actif 109 / 103 40% 2 05.07.2027 -
Carlos Mora Universitatea Craiova Actif 116 / 125 65% 1 05.07.2027 Approuver
Finley Burns Wigan Athletic Actif 101 / 116 40% 1 05.07.2027 -
Johnly Yfeko Exeter City Actif 109 / 116 40% 3 03.07.2027 -
Jay McGrath Doncaster Rovers Actif 118 / 118 40% 1 22.06.2027 -
Simon Elisor Universitatea Craiova Refusé 114 / 126 65% 1 03.06.2027 -
Claudiu Ratiu Astra Perdu 132 / 146 65% 1 02.06.2027 -
Ştefan Baiaram Universitatea Craiova Perdu 121 / 118 65% 1 01.06.2027 -
Camilo Durán Bloemfontein Celtic Actif 131 / 130 40% 1 18.01.2027 -
Gedson Fernandes Spartak Moscow Actif 136 / 129 40% 3 30.12.2026 Observer
Jeffrey Asamoah BA All Stars Actif 111 / 114 40% 2 29.12.2026 -
Ilir Krasniqi Polissia Actif 114 / 114 40% 2 29.12.2026 -
Simone Canestrelli Pisa Actif 124 / 129 40% 1 27.12.2026 -
Oleksandr Romanchuk Universitatea Craiova Actif 113 / 129 40% 2 25.12.2026 -
Diego Costa Krasnodar Actif 140 / 140 40% 3 25.12.2026 -
Arsen Adamov Akhmat Grozny Actif 116 / 119 40% 3 24.12.2026 -
Danil Glebov Dinamo Moscow Actif 138 / 130 40% 2 24.12.2026 -
Maicon Levski Actif 121 / 118 40% 6 23.12.2026 -
Alexandr Chernikov Krasnodar Actif 139 / 131 40% 1 18.12.2026 -
Mitchel Bakker Rostov Actif 133 / 129 40% 1 17.12.2026 -
Ciro De Angelis Siah Jamegan Actif 122 / 136 40% 1 16.12.2026 -
Hlompho Billiat Free State Stars Actif 128 / 127 40% 2 10.12.2026 -
Musab Al-Juwayr Al-Qadisiyah Actif 136 / 130 40% 2 10.12.2026 -
Isaac Solet CSKA Sofia Actif 121 / 115 40% 1 06.12.2026 -
Pedro Bicalho Qarabag Actif 139 / 129 40% 2 02.12.2026 -
Pedro Henrique Shakhtar Actif 143 / 130 40% 3 01.12.2026 -
Volodymyr Brazhko Dynamo Kyiv Actif 137 / 129 40% 2 30.11.2026 -
Mohamed Ali Ben Romdhane Al Ahly Actif 130 / 134 40% 1 28.11.2026 -
Mihály Kata MTK Budapest Actif 116 / 117 40% 1 18.11.2026 -
Nikita Krivtsov Krasnodar Actif 118 / 126 40% 1 16.11.2026 -
Vasco Sousa Porto Actif 128 / 132 40% 1 15.11.2026 -
Álex Centelles Levski Actif 118 / 126 40% 1 03.11.2026 -
Filip Kaloč Ludogorets Actif 135 / 121 40% 1 25.10.2026 -
Frans Krätzig Red Bull Salzburg Actif 134 / 127 40% 1 24.10.2026 -
James Eto'o CSKA Sofia Actif 127 / 124 40% 2 21.10.2026 -
Jorge Cabello Levante Actif 131 / 123 40% 1 16.10.2026 -
Christian Krasnodar Actif 135 / 131 40% 2 12.10.2026 -
Mathias Kjølø Rosenborg Actif 115 / 124 40% 1 11.10.2026 -
Emil Breivik Molde Actif 145 / 135 40% 1 05.10.2026 -
Florentino Luís Ipswich Town Actif 148 / 145 40% 1 01.08.2026 -